sensor_id;sensor_type;location;lat;lon;timestamp;pressure;altitude;pressure_sealevel;temperature;humidity
81299;BME280;70766;53.170;18.160;2024-02-28T00:01:18;101262.63;;;5.02;100.00
81299;BME280;70766;53.170;18.160;2024-02-28T00:03:46;101262.30;;;5.00;100.00
81299;BME280;70766;53.170;18.160;2024-02-28T00:06:18;101262.48;;;4.98;100.00
81299;BME280;70766;53.170;18.160;2024-02-28T00:08:46;101262.52;;;4.96;100.00
81299;BME280;70766;53.170;18.160;2024-02-28T00:11:14;101262.27;;;4.96;100.00
81299;BME280;70766;53.170;18.160;2024-02-28T00:13:42;101261.45;;;4.98;100.00
81299;BME280;70766;53.170;18.160;2024-02-28T00:16:11;101259.55;;;4.98;100.00
81299;BME280;70766;53.170;18.160;2024-02-28T00:18:39;101253.23;;;4.96;100.00
81299;BME280;70766;53.170;18.160;2024-02-28T00:21:07;101248.69;;;4.94;100.00
81299;BME280;70766;53.170;18.160;2024-02-28T00:23:35;101248.14;;;4.91;100.00
81299;BME280;70766;53.170;18.160;2024-02-28T00:26:04;101246.20;;;4.91;100.00
81299;BME280;70766;53.170;18.160;2024-02-28T00:28:32;101251.37;;;4.89;100.00
81299;BME280;70766;53.170;18.160;2024-02-28T00:31:00;101259.15;;;4.91;100.00
81299;BME280;70766;53.170;18.160;2024-02-28T00:33:28;101267.95;;;4.87;100.00
81299;BME280;70766;53.170;18.160;2024-02-28T00:35:56;101274.98;;;4.85;100.00
81299;BME280;70766;53.170;18.160;2024-02-28T00:38:24;101274.89;;;4.86;100.00
81299;BME280;70766;53.170;18.160;2024-02-28T00:40:52;101276.88;;;4.87;100.00
81299;BME280;70766;53.170;18.160;2024-02-28T00:43:21;101276.34;;;4.87;100.00
81299;BME280;70766;53.170;18.160;2024-02-28T00:45:49;101276.29;;;4.86;100.00
81299;BME280;70766;53.170;18.160;2024-02-28T00:48:17;101277.59;;;4.86;100.00
81299;BME280;70766;53.170;18.160;2024-02-28T00:50:45;101271.93;;;4.86;100.00
81299;BME280;70766;53.170;18.160;2024-02-28T00:53:14;101276.65;;;4.86;100.00
81299;BME280;70766;53.170;18.160;2024-02-28T00:55:42;101279.09;;;4.87;100.00
81299;BME280;70766;53.170;18.160;2024-02-28T00:58:10;101277.70;;;4.85;100.00
81299;BME280;70766;53.170;18.160;2024-02-28T01:00:38;101275.96;;;4.84;100.00
81299;BME280;70766;53.170;18.160;2024-02-28T01:03:06;101274.27;;;4.84;100.00
81299;BME280;70766;53.170;18.160;2024-02-28T01:05:37;101270.85;;;4.84;100.00
81299;BME280;70766;53.170;18.160;2024-02-28T01:08:06;101266.69;;;4.85;100.00
81299;BME280;70766;53.170;18.160;2024-02-28T01:10:34;101260.52;;;4.83;100.00
81299;BME280;70766;53.170;18.160;2024-02-28T01:13:02;101255.27;;;4.83;100.00
81299;BME280;70766;53.170;18.160;2024-02-28T01:15:31;101247.88;;;4.81;100.00
81299;BME280;70766;53.170;18.160;2024-02-28T01:17:59;101248.14;;;4.80;100.00
81299;BME280;70766;53.170;18.160;2024-02-28T01:20:27;101240.70;;;4.80;100.00
81299;BME280;70766;53.170;18.160;2024-02-28T01:22:55;101239.84;;;4.78;100.00
81299;BME280;70766;53.170;18.160;2024-02-28T01:25:23;101245.02;;;4.75;100.00
81299;BME280;70766;53.170;18.160;2024-02-28T01:27:51;101249.69;;;4.73;100.00
81299;BME280;70766;53.170;18.160;2024-02-28T01:30:19;101250.65;;;4.74;100.00
81299;BME280;70766;53.170;18.160;2024-02-28T01:32:47;101255.48;;;4.73;100.00
81299;BME280;70766;53.170;18.160;2024-02-28T01:35:15;101249.61;;;4.73;100.00
81299;BME280;70766;53.170;18.160;2024-02-28T01:37:44;101258.14;;;4.73;100.00
81299;BME280;70766;53.170;18.160;2024-02-28T01:40:12;101258.48;;;4.73;100.00
81299;BME280;70766;53.170;18.160;2024-02-28T01:42:41;101260.18;;;4.72;100.00
81299;BME280;70766;53.170;18.160;2024-02-28T01:45:13;101265.89;;;4.74;100.00
81299;BME280;70766;53.170;18.160;2024-02-28T01:47:42;101263.95;;;4.75;100.00
81299;BME280;70766;53.170;18.160;2024-02-28T01:50:11;101265.88;;;4.75;100.00
81299;BME280;70766;53.170;18.160;2024-02-28T01:52:40;101267.84;;;4.77;100.00
81299;BME280;70766;53.170;18.160;2024-02-28T01:55:09;101269.71;;;4.79;100.00
81299;BME280;70766;53.170;18.160;2024-02-28T01:57:38;101271.21;;;4.78;100.00
81299;BME280;70766;53.170;18.160;2024-02-28T02:00:07;101269.75;;;4.79;100.00
81299;BME280;70766;53.170;18.160;2024-02-28T02:02:38;101269.48;;;4.78;100.00
81299;BME280;70766;53.170;18.160;2024-02-28T02:05:08;101275.34;;;4.76;100.00
81299;BME280;70766;53.170;18.160;2024-02-28T02:07:37;101275.16;;;4.73;100.00
81299;BME280;70766;53.170;18.160;2024-02-28T02:10:08;101276.64;;;4.71;100.00
81299;BME280;70766;53.170;18.160;2024-02-28T02:12:38;101279.44;;;4.70;100.00
81299;BME280;70766;53.170;18.160;2024-02-28T02:15:06;101280.96;;;4.69;100.00
81299;BME280;70766;53.170;18.160;2024-02-28T02:17:35;101281.67;;;4.68;100.00
81299;BME280;70766;53.170;18.160;2024-02-28T02:20:03;101282.38;;;4.68;100.00
81299;BME280;70766;53.170;18.160;2024-02-28T02:22:35;101278.00;;;4.68;100.00
81299;BME280;70766;53.170;18.160;2024-02-28T02:25:06;101277.27;;;4.69;100.00
81299;BME280;70766;53.170;18.160;2024-02-28T02:27:35;101274.14;;;4.71;100.00
81299;BME280;70766;53.170;18.160;2024-02-28T02:30:04;101271.26;;;4.72;100.00
81299;BME280;70766;53.170;18.160;2024-02-28T02:32:32;101267.61;;;4.71;100.00
81299;BME280;70766;53.170;18.160;2024-02-28T02:35:00;101271.15;;;4.73;100.00
81299;BME280;70766;53.170;18.160;2024-02-28T02:37:28;101270.84;;;4.69;100.00
81299;BME280;70766;53.170;18.160;2024-02-28T02:39:56;101269.79;;;4.68;100.00
81299;BME280;70766;53.170;18.160;2024-02-28T02:42:24;101267.41;;;4.68;100.00
81299;BME280;70766;53.170;18.160;2024-02-28T02:44:53;101267.26;;;4.68;100.00
81299;BME280;70766;53.170;18.160;2024-02-28T02:47:21;101268.46;;;4.67;100.00
81299;BME280;70766;53.170;18.160;2024-02-28T02:49:49;101268.84;;;4.64;100.00
81299;BME280;70766;53.170;18.160;2024-02-28T02:52:17;101267.02;;;4.62;100.00
81299;BME280;70766;53.170;18.160;2024-02-28T02:54:45;101262.69;;;4.63;100.00
81299;BME280;70766;53.170;18.160;2024-02-28T02:57:13;101264.69;;;4.63;100.00
81299;BME280;70766;53.170;18.160;2024-02-28T02:59:41;101255.61;;;4.63;100.00
81299;BME280;70766;53.170;18.160;2024-02-28T03:02:09;101256.06;;;4.59;100.00
81299;BME280;70766;53.170;18.160;2024-02-28T03:04:37;101252.21;;;4.57;100.00
81299;BME280;70766;53.170;18.160;2024-02-28T03:07:05;101248.73;;;4.58;100.00
81299;BME280;70766;53.170;18.160;2024-02-28T03:09:33;101243.13;;;4.61;100.00
81299;BME280;70766;53.170;18.160;2024-02-28T03:12:01;101248.83;;;4.59;100.00
81299;BME280;70766;53.170;18.160;2024-02-28T03:14:30;101244.83;;;4.57;100.00
81299;BME280;70766;53.170;18.160;2024-02-28T03:16:58;101252.86;;;4.56;100.00
81299;BME280;70766;53.170;18.160;2024-02-28T03:19:27;101250.60;;;4.57;100.00
81299;BME280;70766;53.170;18.160;2024-02-28T03:21:55;101251.68;;;4.59;100.00
81299;BME280;70766;53.170;18.160;2024-02-28T03:24:23;101256.88;;;4.58;100.00
81299;BME280;70766;53.170;18.160;2024-02-28T03:26:52;101255.56;;;4.59;100.00
81299;BME280;70766;53.170;18.160;2024-02-28T03:29:20;101258.62;;;4.60;100.00
81299;BME280;70766;53.170;18.160;2024-02-28T03:31:48;101259.05;;;4.59;100.00
81299;BME280;70766;53.170;18.160;2024-02-28T03:34:16;101261.42;;;4.60;100.00
81299;BME280;70766;53.170;18.160;2024-02-28T03:36:45;101257.59;;;4.58;100.00
81299;BME280;70766;53.170;18.160;2024-02-28T03:39:13;101255.48;;;4.59;100.00
81299;BME280;70766;53.170;18.160;2024-02-28T03:41:42;101255.30;;;4.56;100.00
81299;BME280;70766;53.170;18.160;2024-02-28T03:44:10;101254.11;;;4.56;100.00
81299;BME280;70766;53.170;18.160;2024-02-28T03:46:38;101256.02;;;4.57;100.00
81299;BME280;70766;53.170;18.160;2024-02-28T03:49:07;101256.19;;;4.57;100.00
81299;BME280;70766;53.170;18.160;2024-02-28T03:51:42;101254.48;;;4.56;100.00
81299;BME280;70766;53.170;18.160;2024-02-28T03:54:10;101254.50;;;4.53;100.00
81299;BME280;70766;53.170;18.160;2024-02-28T03:56:39;101254.26;;;4.53;100.00
81299;BME280;70766;53.170;18.160;2024-02-28T03:59:07;101258.81;;;4.54;100.00
81299;BME280;70766;53.170;18.160;2024-02-28T04:01:35;101258.16;;;4.52;100.00
81299;BME280;70766;53.170;18.160;2024-02-28T04:04:03;101259.21;;;4.49;100.00
81299;BME280;70766;53.170;18.160;2024-02-28T04:06:31;101257.05;;;4.52;100.00
81299;BME280;70766;53.170;18.160;2024-02-28T04:08:59;101259.66;;;4.49;100.00
81299;BME280;70766;53.170;18.160;2024-02-28T04:11:28;101261.02;;;4.50;100.00
81299;BME280;70766;53.170;18.160;2024-02-28T04:13:56;101256.98;;;4.48;100.00
81299;BME280;70766;53.170;18.160;2024-02-28T04:16:25;101258.55;;;4.47;100.00
81299;BME280;70766;53.170;18.160;2024-02-28T04:18:53;101258.75;;;4.46;100.00
81299;BME280;70766;53.170;18.160;2024-02-28T04:21:21;101256.13;;;4.46;100.00
81299;BME280;70766;53.170;18.160;2024-02-28T04:23:49;101251.93;;;4.49;100.00
81299;BME280;70766;53.170;18.160;2024-02-28T04:26:17;101250.18;;;4.47;100.00
81299;BME280;70766;53.170;18.160;2024-02-28T04:28:45;101253.08;;;4.47;100.00
81299;BME280;70766;53.170;18.160;2024-02-28T04:31:14;101253.06;;;4.47;100.00
81299;BME280;70766;53.170;18.160;2024-02-28T04:33:42;101258.27;;;4.49;100.00
81299;BME280;70766;53.170;18.160;2024-02-28T04:36:10;101262.15;;;4.46;100.00
81299;BME280;70766;53.170;18.160;2024-02-28T04:38:38;101260.72;;;4.45;100.00
81299;BME280;70766;53.170;18.160;2024-02-28T04:41:06;101263.08;;;4.44;100.00
81299;BME280;70766;53.170;18.160;2024-02-28T04:43:34;101259.67;;;4.44;100.00
81299;BME280;70766;53.170;18.160;2024-02-28T04:46:03;101259.70;;;4.43;100.00
81299;BME280;70766;53.170;18.160;2024-02-28T04:48:31;101258.60;;;4.43;100.00
81299;BME280;70766;53.170;18.160;2024-02-28T04:51:00;101259.73;;;4.45;100.00
81299;BME280;70766;53.170;18.160;2024-02-28T04:53:30;101261.90;;;4.45;100.00
81299;BME280;70766;53.170;18.160;2024-02-28T04:55:59;101267.64;;;4.43;100.00
81299;BME280;70766;53.170;18.160;2024-02-28T04:58:27;101270.04;;;4.41;100.00
81299;BME280;70766;53.170;18.160;2024-02-28T05:00:55;101265.30;;;4.39;100.00
81299;BME280;70766;53.170;18.160;2024-02-28T05:03:24;101264.17;;;4.38;100.00
81299;BME280;70766;53.170;18.160;2024-02-28T05:05:53;101267.94;;;4.37;100.00
81299;BME280;70766;53.170;18.160;2024-02-28T05:08:21;101270.19;;;4.36;100.00
81299;BME280;70766;53.170;18.160;2024-02-28T05:10:49;101275.05;;;4.37;100.00
81299;BME280;70766;53.170;18.160;2024-02-28T05:13:18;101275.92;;;4.39;100.00
81299;BME280;70766;53.170;18.160;2024-02-28T05:15:46;101275.89;;;4.39;100.00
81299;BME280;70766;53.170;18.160;2024-02-28T05:18:15;101273.73;;;4.39;100.00
81299;BME280;70766;53.170;18.160;2024-02-28T05:20:43;101277.65;;;4.39;100.00
81299;BME280;70766;53.170;18.160;2024-02-28T05:23:11;101280.71;;;4.39;100.00
81299;BME280;70766;53.170;18.160;2024-02-28T05:25:40;101281.34;;;4.39;100.00
81299;BME280;70766;53.170;18.160;2024-02-28T05:28:08;101283.23;;;4.38;100.00
81299;BME280;70766;53.170;18.160;2024-02-28T05:30:36;101283.69;;;4.39;100.00
81299;BME280;70766;53.170;18.160;2024-02-28T05:33:07;101285.79;;;4.38;100.00
81299;BME280;70766;53.170;18.160;2024-02-28T05:35:36;101291.70;;;4.37;100.00
81299;BME280;70766;53.170;18.160;2024-02-28T05:38:05;101290.23;;;4.37;100.00
81299;BME280;70766;53.170;18.160;2024-02-28T05:40:33;101293.59;;;4.37;100.00
81299;BME280;70766;53.170;18.160;2024-02-28T05:43:01;101291.91;;;4.38;100.00
81299;BME280;70766;53.170;18.160;2024-02-28T05:45:30;101290.55;;;4.36;100.00
81299;BME280;70766;53.170;18.160;2024-02-28T05:47:58;101289.15;;;4.36;100.00
81299;BME280;70766;53.170;18.160;2024-02-28T05:50:26;101282.23;;;4.36;100.00
81299;BME280;70766;53.170;18.160;2024-02-28T05:52:55;101285.48;;;4.37;100.00
81299;BME280;70766;53.170;18.160;2024-02-28T05:55:23;101287.55;;;4.38;100.00
81299;BME280;70766;53.170;18.160;2024-02-28T05:57:52;101289.44;;;4.40;100.00
81299;BME280;70766;53.170;18.160;2024-02-28T06:00:20;101293.30;;;4.40;100.00
81299;BME280;70766;53.170;18.160;2024-02-28T06:02:48;101304.83;;;4.40;100.00
81299;BME280;70766;53.170;18.160;2024-02-28T06:05:16;101308.51;;;4.40;100.00
81299;BME280;70766;53.170;18.160;2024-02-28T06:07:44;101315.95;;;4.40;100.00
81299;BME280;70766;53.170;18.160;2024-02-28T06:10:13;101316.28;;;4.41;100.00
81299;BME280;70766;53.170;18.160;2024-02-28T06:12:41;101320.83;;;4.43;100.00
81299;BME280;70766;53.170;18.160;2024-02-28T06:15:09;101325.64;;;4.44;100.00
81299;BME280;70766;53.170;18.160;2024-02-28T06:17:38;101325.20;;;4.44;100.00
81299;BME280;70766;53.170;18.160;2024-02-28T06:20:07;101326.16;;;4.46;100.00
81299;BME280;70766;53.170;18.160;2024-02-28T06:22:35;101323.41;;;4.47;100.00
81299;BME280;70766;53.170;18.160;2024-02-28T06:25:04;101331.04;;;4.46;100.00
81299;BME280;70766;53.170;18.160;2024-02-28T06:27:35;101332.07;;;4.47;100.00
81299;BME280;70766;53.170;18.160;2024-02-28T06:30:04;101339.08;;;4.48;100.00
81299;BME280;70766;53.170;18.160;2024-02-28T06:32:34;101340.90;;;4.49;100.00
81299;BME280;70766;53.170;18.160;2024-02-28T06:35:02;101340.31;;;4.49;100.00
81299;BME280;70766;53.170;18.160;2024-02-28T06:37:31;101341.99;;;4.50;100.00
81299;BME280;70766;53.170;18.160;2024-02-28T06:39:59;101345.61;;;4.49;100.00
81299;BME280;70766;53.170;18.160;2024-02-28T06:42:27;101346.83;;;4.50;100.00
81299;BME280;70766;53.170;18.160;2024-02-28T06:44:55;101346.02;;;4.51;100.00
81299;BME280;70766;53.170;18.160;2024-02-28T06:47:23;101347.77;;;4.54;100.00
81299;BME280;70766;53.170;18.160;2024-02-28T06:49:51;101349.15;;;4.54;100.00
81299;BME280;70766;53.170;18.160;2024-02-28T06:52:20;101353.02;;;4.54;100.00
81299;BME280;70766;53.170;18.160;2024-02-28T06:54:48;101360.29;;;4.56;100.00
81299;BME280;70766;53.170;18.160;2024-02-28T06:57:16;101366.61;;;4.59;100.00
81299;BME280;70766;53.170;18.160;2024-02-28T06:59:44;101369.09;;;4.61;100.00
81299;BME280;70766;53.170;18.160;2024-02-28T07:02:12;101368.60;;;4.60;100.00
81299;BME280;70766;53.170;18.160;2024-02-28T07:04:41;101365.60;;;4.59;100.00
81299;BME280;70766;53.170;18.160;2024-02-28T07:07:10;101367.20;;;4.62;100.00
81299;BME280;70766;53.170;18.160;2024-02-28T07:09:38;101363.20;;;4.66;100.00
81299;BME280;70766;53.170;18.160;2024-02-28T07:12:06;101359.17;;;4.69;100.00
81299;BME280;70766;53.170;18.160;2024-02-28T07:14:34;101364.19;;;4.70;100.00
81299;BME280;70766;53.170;18.160;2024-02-28T07:17:02;101370.70;;;4.73;100.00
81299;BME280;70766;53.170;18.160;2024-02-28T07:19:30;101371.20;;;4.78;100.00
81299;BME280;70766;53.170;18.160;2024-02-28T07:21:59;101369.82;;;4.82;100.00
81299;BME280;70766;53.170;18.160;2024-02-28T07:24:27;101374.55;;;4.80;100.00
81299;BME280;70766;53.170;18.160;2024-02-28T07:26:55;101375.98;;;4.77;100.00
81299;BME280;70766;53.170;18.160;2024-02-28T07:29:25;101378.65;;;4.77;100.00
81299;BME280;70766;53.170;18.160;2024-02-28T07:31:53;101379.54;;;4.80;100.00
81299;BME280;70766;53.170;18.160;2024-02-28T07:34:21;101386.09;;;4.81;100.00
81299;BME280;70766;53.170;18.160;2024-02-28T07:36:49;101384.32;;;4.83;100.00
81299;BME280;70766;53.170;18.160;2024-02-28T07:39:18;101386.52;;;4.89;100.00
81299;BME280;70766;53.170;18.160;2024-02-28T07:41:46;101386.63;;;4.94;100.00
81299;BME280;70766;53.170;18.160;2024-02-28T07:44:14;101386.79;;;5.03;100.00
81299;BME280;70766;53.170;18.160;2024-02-28T07:46:42;101389.70;;;5.11;100.00
81299;BME280;70766;53.170;18.160;2024-02-28T07:49:10;101395.90;;;5.15;100.00
81299;BME280;70766;53.170;18.160;2024-02-28T07:51:38;101398.00;;;5.19;100.00
81299;BME280;70766;53.170;18.160;2024-02-28T07:54:08;101393.59;;;5.26;100.00
81299;BME280;70766;53.170;18.160;2024-02-28T07:56:36;101398.04;;;5.35;100.00
81299;BME280;70766;53.170;18.160;2024-02-28T07:59:04;101395.26;;;5.46;100.00
81299;BME280;70766;53.170;18.160;2024-02-28T08:01:33;101392.88;;;5.59;100.00
81299;BME280;70766;53.170;18.160;2024-02-28T08:04:02;101389.56;;;5.66;100.00
81299;BME280;70766;53.170;18.160;2024-02-28T08:06:30;101392.80;;;5.64;100.00
81299;BME280;70766;53.170;18.160;2024-02-28T08:09:01;101395.18;;;5.63;100.00
81299;BME280;70766;53.170;18.160;2024-02-28T08:11:32;101394.41;;;5.59;100.00
81299;BME280;70766;53.170;18.160;2024-02-28T08:14:00;101394.92;;;5.63;100.00
81299;BME280;70766;53.170;18.160;2024-02-28T08:16:28;101392.30;;;5.67;100.00
81299;BME280;70766;53.170;18.160;2024-02-28T08:18:59;101393.31;;;5.72;100.00
81299;BME280;70766;53.170;18.160;2024-02-28T08:21:27;101395.33;;;5.79;100.00
81299;BME280;70766;53.170;18.160;2024-02-28T08:23:57;101392.90;;;5.86;100.00
81299;BME280;70766;53.170;18.160;2024-02-28T08:26:26;101391.40;;;5.91;100.00
81299;BME280;70766;53.170;18.160;2024-02-28T08:28:54;101390.88;;;5.89;100.00
81299;BME280;70766;53.170;18.160;2024-02-28T08:31:22;101391.20;;;5.90;100.00
81299;BME280;70766;53.170;18.160;2024-02-28T08:33:51;101389.48;;;5.91;100.00
81299;BME280;70766;53.170;18.160;2024-02-28T08:36:20;101390.45;;;5.90;100.00
81299;BME280;70766;53.170;18.160;2024-02-28T08:38:49;101389.56;;;5.96;100.00
81299;BME280;70766;53.170;18.160;2024-02-28T08:41:19;101385.23;;;6.00;100.00
81299;BME280;70766;53.170;18.160;2024-02-28T08:43:47;101388.03;;;6.08;100.00
81299;BME280;70766;53.170;18.160;2024-02-28T08:46:16;101387.48;;;6.17;100.00
81299;BME280;70766;53.170;18.160;2024-02-28T08:48:44;101394.80;;;6.25;100.00
81299;BME280;70766;53.170;18.160;2024-02-28T08:51:12;101402.80;;;6.25;100.00
81299;BME280;70766;53.170;18.160;2024-02-28T08:53:40;101396.51;;;6.27;100.00
81299;BME280;70766;53.170;18.160;2024-02-28T08:56:08;101395.65;;;6.46;100.00
81299;BME280;70766;53.170;18.160;2024-02-28T08:58:36;101398.95;;;6.56;100.00
81299;BME280;70766;53.170;18.160;2024-02-28T09:01:05;101402.48;;;6.59;100.00
81299;BME280;70766;53.170;18.160;2024-02-28T09:03:34;101408.55;;;6.60;100.00
81299;BME280;70766;53.170;18.160;2024-02-28T09:06:02;101412.56;;;6.55;100.00
81299;BME280;70766;53.170;18.160;2024-02-28T09:08:31;101414.30;;;6.51;100.00
81299;BME280;70766;53.170;18.160;2024-02-28T09:10:59;101410.86;;;6.45;100.00
81299;BME280;70766;53.170;18.160;2024-02-28T09:13:29;101414.11;;;6.38;100.00
81299;BME280;70766;53.170;18.160;2024-02-28T09:15:58;101420.04;;;6.34;100.00
81299;BME280;70766;53.170;18.160;2024-02-28T09:18:26;101413.34;;;6.31;100.00
81299;BME280;70766;53.170;18.160;2024-02-28T09:20:54;101406.98;;;6.34;100.00
81299;BME280;70766;53.170;18.160;2024-02-28T09:23:23;101416.20;;;6.28;100.00
81299;BME280;70766;53.170;18.160;2024-02-28T09:25:51;101425.07;;;6.26;100.00
81299;BME280;70766;53.170;18.160;2024-02-28T09:28:37;101425.36;;;6.24;100.00
81299;BME280;70766;53.170;18.160;2024-02-28T09:31:24;101428.66;;;6.25;100.00
81299;BME280;70766;53.170;18.160;2024-02-28T09:34:09;101427.48;;;6.23;100.00
81299;BME280;70766;53.170;18.160;2024-02-28T09:36:41;101421.69;;;6.25;100.00
81299;BME280;70766;53.170;18.160;2024-02-28T09:39:18;101430.28;;;6.29;100.00
81299;BME280;70766;53.170;18.160;2024-02-28T09:41:48;101437.36;;;6.38;100.00
81299;BME280;70766;53.170;18.160;2024-02-28T09:44:17;101431.67;;;6.54;100.00
81299;BME280;70766;53.170;18.160;2024-02-28T09:46:47;101427.69;;;6.72;100.00
81299;BME280;70766;53.170;18.160;2024-02-28T09:49:18;101425.40;;;6.85;100.00
81299;BME280;70766;53.170;18.160;2024-02-28T09:51:49;101422.66;;;6.94;100.00
81299;BME280;70766;53.170;18.160;2024-02-28T09:54:19;101425.76;;;7.01;100.00
81299;BME280;70766;53.170;18.160;2024-02-28T09:56:48;101425.11;;;7.13;100.00
81299;BME280;70766;53.170;18.160;2024-02-28T09:59:19;101431.30;;;7.25;100.00
81299;BME280;70766;53.170;18.160;2024-02-28T10:01:57;101438.42;;;7.35;100.00
81299;BME280;70766;53.170;18.160;2024-02-28T10:04:26;101438.14;;;7.43;100.00
81299;BME280;70766;53.170;18.160;2024-02-28T10:06:56;101445.33;;;7.46;100.00
81299;BME280;70766;53.170;18.160;2024-02-28T10:09:24;101447.33;;;7.45;100.00
81299;BME280;70766;53.170;18.160;2024-02-28T10:11:52;101447.45;;;7.46;100.00
81299;BME280;70766;53.170;18.160;2024-02-28T10:14:20;101452.77;;;7.46;100.00
81299;BME280;70766;53.170;18.160;2024-02-28T10:16:49;101455.98;;;7.49;100.00
81299;BME280;70766;53.170;18.160;2024-02-28T10:19:17;101456.38;;;7.50;100.00
81299;BME280;70766;53.170;18.160;2024-02-28T10:21:46;101459.52;;;7.51;100.00
81299;BME280;70766;53.170;18.160;2024-02-28T10:24:14;101463.33;;;7.57;100.00
81299;BME280;70766;53.170;18.160;2024-02-28T10:26:46;101462.68;;;7.58;100.00
81299;BME280;70766;53.170;18.160;2024-02-28T10:29:25;101461.11;;;7.53;100.00
81299;BME280;70766;53.170;18.160;2024-02-28T10:31:57;101462.98;;;7.57;100.00
81299;BME280;70766;53.170;18.160;2024-02-28T10:34:25;101464.96;;;7.54;100.00
81299;BME280;70766;53.170;18.160;2024-02-28T10:36:53;101470.30;;;7.45;100.00
81299;BME280;70766;53.170;18.160;2024-02-28T10:39:21;101474.29;;;7.39;100.00
81299;BME280;70766;53.170;18.160;2024-02-28T10:41:50;101474.15;;;7.38;100.00
81299;BME280;70766;53.170;18.160;2024-02-28T10:44:20;101476.00;;;7.38;100.00
81299;BME280;70766;53.170;18.160;2024-02-28T10:46:49;101477.84;;;7.38;100.00
81299;BME280;70766;53.170;18.160;2024-02-28T10:49:18;101478.35;;;7.32;100.00
81299;BME280;70766;53.170;18.160;2024-02-28T10:51:48;101478.77;;;7.29;100.00
81299;BME280;70766;53.170;18.160;2024-02-28T10:54:21;101479.90;;;7.15;100.00
81299;BME280;70766;53.170;18.160;2024-02-28T10:56:51;101475.64;;;7.11;100.00
81299;BME280;70766;53.170;18.160;2024-02-28T10:59:21;101477.34;;;7.14;100.00
81299;BME280;70766;53.170;18.160;2024-02-28T11:01:51;101480.01;;;7.17;100.00
81299;BME280;70766;53.170;18.160;2024-02-28T11:04:19;101475.98;;;7.19;100.00
81299;BME280;70766;53.170;18.160;2024-02-28T11:06:49;101474.97;;;7.22;100.00
81299;BME280;70766;53.170;18.160;2024-02-28T11:09:22;101473.66;;;7.22;100.00
81299;BME280;70766;53.170;18.160;2024-02-28T11:11:51;101474.92;;;7.19;100.00
81299;BME280;70766;53.170;18.160;2024-02-28T11:14:21;101474.07;;;7.16;100.00
81299;BME280;70766;53.170;18.160;2024-02-28T11:17:03;101472.80;;;7.13;100.00
81299;BME280;70766;53.170;18.160;2024-02-28T11:19:33;101472.49;;;7.16;100.00
81299;BME280;70766;53.170;18.160;2024-02-28T11:22:05;101474.63;;;7.22;100.00
81299;BME280;70766;53.170;18.160;2024-02-28T11:24:34;101474.61;;;7.29;100.00
81299;BME280;70766;53.170;18.160;2024-02-28T11:27:05;101475.10;;;7.38;100.00
81299;BME280;70766;53.170;18.160;2024-02-28T11:29:34;101475.67;;;7.48;100.00
81299;BME280;70766;53.170;18.160;2024-02-28T11:32:03;101472.92;;;7.59;100.00
81299;BME280;70766;53.170;18.160;2024-02-28T11:34:33;101477.43;;;7.64;100.00
81299;BME280;70766;53.170;18.160;2024-02-28T11:37:02;101471.70;;;7.73;100.00
81299;BME280;70766;53.170;18.160;2024-02-28T11:39:31;101473.41;;;7.73;100.00
81299;BME280;70766;53.170;18.160;2024-02-28T11:42:12;101469.39;;;7.85;100.00
81299;BME280;70766;53.170;18.160;2024-02-28T11:44:53;101469.67;;;7.96;100.00
81299;BME280;70766;53.170;18.160;2024-02-28T11:47:27;101473.30;;;8.01;100.00
81299;BME280;70766;53.170;18.160;2024-02-28T11:50:00;101476.00;;;7.99;100.00
81299;BME280;70766;53.170;18.160;2024-02-28T11:52:33;101479.48;;;8.11;100.00
81299;BME280;70766;53.170;18.160;2024-02-28T11:55:04;101481.97;;;8.20;100.00
81299;BME280;70766;53.170;18.160;2024-02-28T11:57:32;101485.33;;;8.27;100.00
81299;BME280;70766;53.170;18.160;2024-02-28T12:00:12;101482.30;;;8.34;100.00
81299;BME280;70766;53.170;18.160;2024-02-28T12:02:43;101483.71;;;8.36;100.00
81299;BME280;70766;53.170;18.160;2024-02-28T12:05:11;101483.45;;;8.33;100.00
81299;BME280;70766;53.170;18.160;2024-02-28T12:07:39;101485.07;;;8.28;100.00
81299;BME280;70766;53.170;18.160;2024-02-28T12:10:09;101480.66;;;8.34;100.00
81299;BME280;70766;53.170;18.160;2024-02-28T12:12:39;101482.27;;;8.33;100.00
81299;BME280;70766;53.170;18.160;2024-02-28T12:15:07;101482.89;;;8.28;100.00
81299;BME280;70766;53.170;18.160;2024-02-28T12:17:35;101489.75;;;8.23;100.00
81299;BME280;70766;53.170;18.160;2024-02-28T12:20:04;101487.45;;;8.13;100.00
81299;BME280;70766;53.170;18.160;2024-02-28T12:22:34;101491.36;;;8.13;100.00
81299;BME280;70766;53.170;18.160;2024-02-28T12:25:02;101491.42;;;8.11;100.00
81299;BME280;70766;53.170;18.160;2024-02-28T12:27:32;101496.22;;;8.10;100.00
81299;BME280;70766;53.170;18.160;2024-02-28T12:30:00;101494.24;;;8.07;100.00
81299;BME280;70766;53.170;18.160;2024-02-28T12:32:29;101493.90;;;8.08;100.00
81299;BME280;70766;53.170;18.160;2024-02-28T12:34:57;101493.20;;;8.17;100.00
81299;BME280;70766;53.170;18.160;2024-02-28T12:37:25;101496.13;;;8.09;100.00
81299;BME280;70766;53.170;18.160;2024-02-28T12:39:53;101496.79;;;8.10;100.00
81299;BME280;70766;53.170;18.160;2024-02-28T12:42:22;101500.16;;;8.13;100.00
81299;BME280;70766;53.170;18.160;2024-02-28T12:44:50;101503.13;;;8.06;100.00
81299;BME280;70766;53.170;18.160;2024-02-28T12:47:19;101504.86;;;8.01;100.00
81299;BME280;70766;53.170;18.160;2024-02-28T12:49:47;101505.54;;;7.92;100.00